sensor_id;sensor_type;location;lat;lon;timestamp;temperature;humidity
5924;DHT22;2987;50.884;14.818;2023-04-15T00:01:28;8.10;99.90
5924;DHT22;2987;50.884;14.818;2023-04-15T00:03:57;8.10;99.90
5924;DHT22;2987;50.884;14.818;2023-04-15T00:06:23;8.40;99.90
5924;DHT22;2987;50.884;14.818;2023-04-15T00:08:49;8.20;99.90
5924;DHT22;2987;50.884;14.818;2023-04-15T00:11:16;8.20;99.90
5924;DHT22;2987;50.884;14.818;2023-04-15T00:13:43;8.40;99.90
5924;DHT22;2987;50.884;14.818;2023-04-15T00:16:10;8.20;99.90
5924;DHT22;2987;50.884;14.818;2023-04-15T00:18:37;8.10;99.90
5924;DHT22;2987;50.884;14.818;2023-04-15T00:21:04;8.10;99.90
5924;DHT22;2987;50.884;14.818;2023-04-15T00:23:30;8.00;99.90
5924;DHT22;2987;50.884;14.818;2023-04-15T00:25:57;8.10;99.90
5924;DHT22;2987;50.884;14.818;2023-04-15T00:28:23;8.10;99.90
5924;DHT22;2987;50.884;14.818;2023-04-15T00:30:49;8.00;99.90
5924;DHT22;2987;50.884;14.818;2023-04-15T00:33:15;8.40;99.90
5924;DHT22;2987;50.884;14.818;2023-04-15T00:35:42;7.90;99.90
5924;DHT22;2987;50.884;14.818;2023-04-15T00:38:09;8.30;99.90
5924;DHT22;2987;50.884;14.818;2023-04-15T00:40:35;8.20;99.90
5924;DHT22;2987;50.884;14.818;2023-04-15T00:43:02;8.40;99.90
5924;DHT22;2987;50.884;14.818;2023-04-15T00:45:29;8.20;99.90
5924;DHT22;2987;50.884;14.818;2023-04-15T00:47:55;8.10;99.90
5924;DHT22;2987;50.884;14.818;2023-04-15T00:50:21;7.90;99.90
5924;DHT22;2987;50.884;14.818;2023-04-15T00:52:48;7.90;99.90
5924;DHT22;2987;50.884;14.818;2023-04-15T00:55:14;7.90;99.90
5924;DHT22;2987;50.884;14.818;2023-04-15T00:57:40;8.20;99.90
5924;DHT22;2987;50.884;14.818;2023-04-15T01:00:07;7.80;99.90
5924;DHT22;2987;50.884;14.818;2023-04-15T01:02:35;8.10;99.90
5924;DHT22;2987;50.884;14.818;2023-04-15T01:05:02;7.90;99.90
5924;DHT22;2987;50.884;14.818;2023-04-15T01:07:29;7.90;99.90
5924;DHT22;2987;50.884;14.818;2023-04-15T01:09:57;8.00;99.90
5924;DHT22;2987;50.884;14.818;2023-04-15T01:12:25;7.90;99.90
5924;DHT22;2987;50.884;14.818;2023-04-15T01:14:53;7.90;99.90
5924;DHT22;2987;50.884;14.818;2023-04-15T01:17:20;7.90;99.90
5924;DHT22;2987;50.884;14.818;2023-04-15T01:19:46;8.00;99.90
5924;DHT22;2987;50.884;14.818;2023-04-15T01:22:13;7.90;99.90
5924;DHT22;2987;50.884;14.818;2023-04-15T01:24:39;7.90;99.90
5924;DHT22;2987;50.884;14.818;2023-04-15T01:27:05;8.00;99.90
5924;DHT22;2987;50.884;14.818;2023-04-15T01:29:34;7.90;99.90
5924;DHT22;2987;50.884;14.818;2023-04-15T01:32:00;7.90;99.90
5924;DHT22;2987;50.884;14.818;2023-04-15T01:34:47;7.90;99.90
5924;DHT22;2987;50.884;14.818;2023-04-15T01:37:32;8.00;99.90
5924;DHT22;2987;50.884;14.818;2023-04-15T01:39:58;8.10;99.90
5924;DHT22;2987;50.884;14.818;2023-04-15T01:42:24;8.00;99.90
5924;DHT22;2987;50.884;14.818;2023-04-15T01:44:51;8.20;99.90
5924;DHT22;2987;50.884;14.818;2023-04-15T01:47:17;7.90;99.90
5924;DHT22;2987;50.884;14.818;2023-04-15T01:49:43;7.90;99.90
5924;DHT22;2987;50.884;14.818;2023-04-15T01:52:11;7.80;99.90
5924;DHT22;2987;50.884;14.818;2023-04-15T01:54:40;8.10;99.90
5924;DHT22;2987;50.884;14.818;2023-04-15T01:57:09;8.20;99.90
5924;DHT22;2987;50.884;14.818;2023-04-15T01:59:36;7.90;99.90
5924;DHT22;2987;50.884;14.818;2023-04-15T02:02:04;7.90;99.90
5924;DHT22;2987;50.884;14.818;2023-04-15T02:04:31;7.90;99.90
5924;DHT22;2987;50.884;14.818;2023-04-15T02:07:00;8.00;99.90
5924;DHT22;2987;50.884;14.818;2023-04-15T02:09:28;7.90;99.90
5924;DHT22;2987;50.884;14.818;2023-04-15T02:11:56;7.90;99.90
5924;DHT22;2987;50.884;14.818;2023-04-15T02:14:24;7.80;99.90
5924;DHT22;2987;50.884;14.818;2023-04-15T02:16:54;7.90;99.90
5924;DHT22;2987;50.884;14.818;2023-04-15T02:19:21;7.90;99.90
5924;DHT22;2987;50.884;14.818;2023-04-15T02:21:49;7.80;99.90
5924;DHT22;2987;50.884;14.818;2023-04-15T02:24:18;8.10;99.90
5924;DHT22;2987;50.884;14.818;2023-04-15T02:26:46;8.00;99.90
5924;DHT22;2987;50.884;14.818;2023-04-15T02:29:13;7.90;99.90
5924;DHT22;2987;50.884;14.818;2023-04-15T02:31:43;7.90;99.90
5924;DHT22;2987;50.884;14.818;2023-04-15T02:34:11;7.90;99.90
5924;DHT22;2987;50.884;14.818;2023-04-15T02:36:45;8.00;99.90
5924;DHT22;2987;50.884;14.818;2023-04-15T02:39:15;7.80;99.90
5924;DHT22;2987;50.884;14.818;2023-04-15T02:41:45;7.80;99.90
5924;DHT22;2987;50.884;14.818;2023-04-15T02:44:19;8.00;99.90
5924;DHT22;2987;50.884;14.818;2023-04-15T02:46:49;7.80;99.90
5924;DHT22;2987;50.884;14.818;2023-04-15T02:49:20;7.90;99.90
5924;DHT22;2987;50.884;14.818;2023-04-15T02:51:48;7.80;99.90
5924;DHT22;2987;50.884;14.818;2023-04-15T02:54:16;7.90;99.90
5924;DHT22;2987;50.884;14.818;2023-04-15T02:56:44;7.90;99.90
5924;DHT22;2987;50.884;14.818;2023-04-15T02:59:12;7.90;99.90
5924;DHT22;2987;50.884;14.818;2023-04-15T03:01:39;7.90;99.90
5924;DHT22;2987;50.884;14.818;2023-04-15T03:04:07;7.80;99.90
5924;DHT22;2987;50.884;14.818;2023-04-15T03:06:35;7.80;99.90
5924;DHT22;2987;50.884;14.818;2023-04-15T03:09:02;7.70;99.90
5924;DHT22;2987;50.884;14.818;2023-04-15T03:11:34;8.00;99.90
5924;DHT22;2987;50.884;14.818;2023-04-15T03:14:09;7.90;99.90
5924;DHT22;2987;50.884;14.818;2023-04-15T03:16:41;7.80;99.90
5924;DHT22;2987;50.884;14.818;2023-04-15T03:19:08;8.10;99.90
5924;DHT22;2987;50.884;14.818;2023-04-15T03:21:36;7.90;99.90
5924;DHT22;2987;50.884;14.818;2023-04-15T03:24:03;7.90;99.90
5924;DHT22;2987;50.884;14.818;2023-04-15T03:26:31;7.90;99.90
5924;DHT22;2987;50.884;14.818;2023-04-15T03:29:02;7.90;99.90
5924;DHT22;2987;50.884;14.818;2023-04-15T03:31:29;8.00;99.90
5924;DHT22;2987;50.884;14.818;2023-04-15T03:33:57;7.90;99.90
5924;DHT22;2987;50.884;14.818;2023-04-15T03:36:24;8.00;99.90
5924;DHT22;2987;50.884;14.818;2023-04-15T03:38:52;8.00;99.90
5924;DHT22;2987;50.884;14.818;2023-04-15T03:41:19;7.90;99.90
5924;DHT22;2987;50.884;14.818;2023-04-15T03:43:46;7.80;99.90
5924;DHT22;2987;50.884;14.818;2023-04-15T03:46:14;7.90;99.90
5924;DHT22;2987;50.884;14.818;2023-04-15T03:48:41;7.80;99.90
5924;DHT22;2987;50.884;14.818;2023-04-15T03:51:09;8.10;99.90
5924;DHT22;2987;50.884;14.818;2023-04-15T03:53:36;8.10;99.90
5924;DHT22;2987;50.884;14.818;2023-04-15T03:56:04;7.70;99.90
5924;DHT22;2987;50.884;14.818;2023-04-15T03:58:32;7.60;99.90
5924;DHT22;2987;50.884;14.818;2023-04-15T04:00:59;7.60;99.90
5924;DHT22;2987;50.884;14.818;2023-04-15T04:03:26;7.60;99.90
5924;DHT22;2987;50.884;14.818;2023-04-15T04:05:53;7.70;99.90
5924;DHT22;2987;50.884;14.818;2023-04-15T04:08:21;7.80;99.90
5924;DHT22;2987;50.884;14.818;2023-04-15T04:10:48;7.80;99.90
5924;DHT22;2987;50.884;14.818;2023-04-15T04:13:16;7.80;99.90
5924;DHT22;2987;50.884;14.818;2023-04-15T04:15:43;7.80;99.90
5924;DHT22;2987;50.884;14.818;2023-04-15T04:18:10;7.90;99.90
5924;DHT22;2987;50.884;14.818;2023-04-15T04:20:38;7.90;99.90
5924;DHT22;2987;50.884;14.818;2023-04-15T04:23:05;7.50;99.90
5924;DHT22;2987;50.884;14.818;2023-04-15T04:25:33;7.80;99.90
5924;DHT22;2987;50.884;14.818;2023-04-15T04:28:00;7.60;99.90
5924;DHT22;2987;50.884;14.818;2023-04-15T04:30:28;7.70;99.90
5924;DHT22;2987;50.884;14.818;2023-04-15T04:32:56;8.10;99.90
5924;DHT22;2987;50.884;14.818;2023-04-15T04:35:24;7.80;99.90
5924;DHT22;2987;50.884;14.818;2023-04-15T04:37:51;7.60;99.90
5924;DHT22;2987;50.884;14.818;2023-04-15T04:40:19;7.50;99.90
5924;DHT22;2987;50.884;14.818;2023-04-15T04:42:47;7.60;99.90
5924;DHT22;2987;50.884;14.818;2023-04-15T04:45:14;7.60;99.90
5924;DHT22;2987;50.884;14.818;2023-04-15T04:47:41;7.60;99.90
5924;DHT22;2987;50.884;14.818;2023-04-15T04:50:09;7.60;99.90
5924;DHT22;2987;50.884;14.818;2023-04-15T04:52:37;8.10;99.90
5924;DHT22;2987;50.884;14.818;2023-04-15T04:55:05;7.50;99.90
5924;DHT22;2987;50.884;14.818;2023-04-15T04:57:32;7.80;99.90
5924;DHT22;2987;50.884;14.818;2023-04-15T05:00:02;8.00;99.90
5924;DHT22;2987;50.884;14.818;2023-04-15T05:02:31;7.70;99.90
5924;DHT22;2987;50.884;14.818;2023-04-15T05:04:58;7.50;99.90
5924;DHT22;2987;50.884;14.818;2023-04-15T05:07:29;7.60;99.90
5924;DHT22;2987;50.884;14.818;2023-04-15T05:09:56;7.60;99.90
5924;DHT22;2987;50.884;14.818;2023-04-15T05:12:24;7.60;99.90
5924;DHT22;2987;50.884;14.818;2023-04-15T05:14:51;7.60;99.90
5924;DHT22;2987;50.884;14.818;2023-04-15T05:17:18;7.60;99.90
5924;DHT22;2987;50.884;14.818;2023-04-15T05:19:46;7.50;99.90
5924;DHT22;2987;50.884;14.818;2023-04-15T05:22:13;7.60;99.90
5924;DHT22;2987;50.884;14.818;2023-04-15T05:24:41;7.60;99.90
5924;DHT22;2987;50.884;14.818;2023-04-15T05:27:09;7.50;99.90
5924;DHT22;2987;50.884;14.818;2023-04-15T05:29:37;7.30;99.90
5924;DHT22;2987;50.884;14.818;2023-04-15T05:32:05;7.30;99.90
5924;DHT22;2987;50.884;14.818;2023-04-15T05:34:32;7.30;99.90
5924;DHT22;2987;50.884;14.818;2023-04-15T05:37:00;7.10;99.90
5924;DHT22;2987;50.884;14.818;2023-04-15T05:39:27;7.30;99.90
5924;DHT22;2987;50.884;14.818;2023-04-15T05:41:54;7.20;99.90
5924;DHT22;2987;50.884;14.818;2023-04-15T05:44:22;7.10;99.90
5924;DHT22;2987;50.884;14.818;2023-04-15T05:46:49;7.30;99.90
5924;DHT22;2987;50.884;14.818;2023-04-15T05:49:16;7.40;99.90
5924;DHT22;2987;50.884;14.818;2023-04-15T05:51:44;7.20;99.90
5924;DHT22;2987;50.884;14.818;2023-04-15T05:54:13;7.30;99.90
5924;DHT22;2987;50.884;14.818;2023-04-15T05:56:40;7.00;99.90
5924;DHT22;2987;50.884;14.818;2023-04-15T05:59:08;7.40;99.90
5924;DHT22;2987;50.884;14.818;2023-04-15T06:01:35;7.00;99.90
5924;DHT22;2987;50.884;14.818;2023-04-15T06:04:03;7.00;99.90
5924;DHT22;2987;50.884;14.818;2023-04-15T06:06:30;7.00;99.90
5924;DHT22;2987;50.884;14.818;2023-04-15T06:08:58;6.80;99.90
5924;DHT22;2987;50.884;14.818;2023-04-15T06:11:25;6.90;99.90
5924;DHT22;2987;50.884;14.818;2023-04-15T06:13:53;7.00;99.90
5924;DHT22;2987;50.884;14.818;2023-04-15T06:16:20;6.90;99.90
5924;DHT22;2987;50.884;14.818;2023-04-15T06:18:48;6.90;99.90
5924;DHT22;2987;50.884;14.818;2023-04-15T06:21:15;7.00;99.90
5924;DHT22;2987;50.884;14.818;2023-04-15T06:23:42;7.00;99.90
5924;DHT22;2987;50.884;14.818;2023-04-15T06:26:10;6.90;99.90
5924;DHT22;2987;50.884;14.818;2023-04-15T06:28:37;7.00;99.90
5924;DHT22;2987;50.884;14.818;2023-04-15T06:31:04;7.30;99.90
5924;DHT22;2987;50.884;14.818;2023-04-15T06:33:31;7.10;99.90
5924;DHT22;2987;50.884;14.818;2023-04-15T06:35:59;7.30;99.90
5924;DHT22;2987;50.884;14.818;2023-04-15T06:38:27;7.30;99.90
5924;DHT22;2987;50.884;14.818;2023-04-15T06:40:54;7.30;99.90
5924;DHT22;2987;50.884;14.818;2023-04-15T06:43:22;7.40;99.90
5924;DHT22;2987;50.884;14.818;2023-04-15T06:45:49;7.30;99.90
5924;DHT22;2987;50.884;14.818;2023-04-15T06:48:17;7.30;99.90
5924;DHT22;2987;50.884;14.818;2023-04-15T06:50:44;7.30;99.90
5924;DHT22;2987;50.884;14.818;2023-04-15T06:53:11;7.30;99.90
5924;DHT22;2987;50.884;14.818;2023-04-15T06:55:39;7.40;99.90
5924;DHT22;2987;50.884;14.818;2023-04-15T06:58:07;7.10;99.90
5924;DHT22;2987;50.884;14.818;2023-04-15T07:00:34;7.30;99.90
5924;DHT22;2987;50.884;14.818;2023-04-15T07:03:02;7.20;99.90
5924;DHT22;2987;50.884;14.818;2023-04-15T07:05:30;7.30;99.90
5924;DHT22;2987;50.884;14.818;2023-04-15T07:07:58;7.60;99.90
5924;DHT22;2987;50.884;14.818;2023-04-15T07:10:26;7.60;99.90
5924;DHT22;2987;50.884;14.818;2023-04-15T07:12:53;7.50;99.90
5924;DHT22;2987;50.884;14.818;2023-04-15T07:15:21;7.50;99.90
5924;DHT22;2987;50.884;14.818;2023-04-15T07:17:49;7.70;99.90
5924;DHT22;2987;50.884;14.818;2023-04-15T07:20:17;7.70;99.90
5924;DHT22;2987;50.884;14.818;2023-04-15T07:22:45;7.50;99.90
5924;DHT22;2987;50.884;14.818;2023-04-15T07:25:12;7.80;99.90
5924;DHT22;2987;50.884;14.818;2023-04-15T07:27:39;7.70;99.90
5924;DHT22;2987;50.884;14.818;2023-04-15T07:30:08;7.80;99.90
5924;DHT22;2987;50.884;14.818;2023-04-15T07:32:36;7.60;99.90
5924;DHT22;2987;50.884;14.818;2023-04-15T07:35:04;7.60;99.90
5924;DHT22;2987;50.884;14.818;2023-04-15T07:37:32;7.70;99.90
5924;DHT22;2987;50.884;14.818;2023-04-15T07:39:59;7.70;99.90
5924;DHT22;2987;50.884;14.818;2023-04-15T07:42:27;7.80;99.90
5924;DHT22;2987;50.884;14.818;2023-04-15T07:44:56;7.60;99.90
5924;DHT22;2987;50.884;14.818;2023-04-15T07:47:23;7.90;99.90
5924;DHT22;2987;50.884;14.818;2023-04-15T07:49:50;7.80;99.90
5924;DHT22;2987;50.884;14.818;2023-04-15T07:52:18;7.80;99.90
5924;DHT22;2987;50.884;14.818;2023-04-15T07:54:45;8.30;99.90
5924;DHT22;2987;50.884;14.818;2023-04-15T07:57:12;8.20;99.90
5924;DHT22;2987;50.884;14.818;2023-04-15T07:59:40;8.20;99.90
5924;DHT22;2987;50.884;14.818;2023-04-15T08:02:08;8.40;99.90
5924;DHT22;2987;50.884;14.818;2023-04-15T08:04:36;8.10;99.90
5924;DHT22;2987;50.884;14.818;2023-04-15T08:07:03;8.20;99.90
5924;DHT22;2987;50.884;14.818;2023-04-15T08:09:31;8.20;99.90
5924;DHT22;2987;50.884;14.818;2023-04-15T08:11:58;8.10;99.90
5924;DHT22;2987;50.884;14.818;2023-04-15T08:14:25;8.00;99.90
5924;DHT22;2987;50.884;14.818;2023-04-15T08:16:53;7.90;99.90
5924;DHT22;2987;50.884;14.818;2023-04-15T08:19:20;8.20;99.90
5924;DHT22;2987;50.884;14.818;2023-04-15T08:21:47;8.20;99.90
5924;DHT22;2987;50.884;14.818;2023-04-15T08:24:14;8.10;99.90
5924;DHT22;2987;50.884;14.818;2023-04-15T08:26:42;8.10;99.90
5924;DHT22;2987;50.884;14.818;2023-04-15T08:29:09;8.30;99.90
5924;DHT22;2987;50.884;14.818;2023-04-15T08:31:36;8.20;99.90
5924;DHT22;2987;50.884;14.818;2023-04-15T08:34:04;8.20;99.90
5924;DHT22;2987;50.884;14.818;2023-04-15T08:36:31;8.40;99.90
5924;DHT22;2987;50.884;14.818;2023-04-15T08:38:59;8.20;99.90
5924;DHT22;2987;50.884;14.818;2023-04-15T08:41:46;8.40;99.90
5924;DHT22;2987;50.884;14.818;2023-04-15T08:44:14;8.20;99.90
5924;DHT22;2987;50.884;14.818;2023-04-15T08:46:41;8.40;99.90
5924;DHT22;2987;50.884;14.818;2023-04-15T08:49:10;8.30;99.90
5924;DHT22;2987;50.884;14.818;2023-04-15T08:51:40;8.30;99.90
5924;DHT22;2987;50.884;14.818;2023-04-15T08:54:08;8.80;99.90
5924;DHT22;2987;50.884;14.818;2023-04-15T08:56:36;8.80;99.90
5924;DHT22;2987;50.884;14.818;2023-04-15T08:59:05;8.80;99.90
5924;DHT22;2987;50.884;14.818;2023-04-15T09:01:33;9.20;99.90
5924;DHT22;2987;50.884;14.818;2023-04-15T09:04:01;8.90;99.90
5924;DHT22;2987;50.884;14.818;2023-04-15T09:06:29;8.90;99.90
5924;DHT22;2987;50.884;14.818;2023-04-15T09:08:56;8.80;99.90
5924;DHT22;2987;50.884;14.818;2023-04-15T09:11:23;8.80;99.90
5924;DHT22;2987;50.884;14.818;2023-04-15T09:13:51;8.90;99.90
5924;DHT22;2987;50.884;14.818;2023-04-15T09:16:18;9.30;99.90
5924;DHT22;2987;50.884;14.818;2023-04-15T09:18:46;8.90;99.90
5924;DHT22;2987;50.884;14.818;2023-04-15T09:21:15;9.40;99.90
5924;DHT22;2987;50.884;14.818;2023-04-15T09:24:00;9.40;99.90
5924;DHT22;2987;50.884;14.818;2023-04-15T09:29:06;9.40;99.90
5924;DHT22;2987;50.884;14.818;2023-04-15T09:31:35;9.30;99.90
5924;DHT22;2987;50.884;14.818;2023-04-15T09:34:03;9.20;99.90
5924;DHT22;2987;50.884;14.818;2023-04-15T09:36:51;9.50;99.90
5924;DHT22;2987;50.884;14.818;2023-04-15T09:39:19;9.60;99.90
5924;DHT22;2987;50.884;14.818;2023-04-15T09:41:47;9.60;99.90
5924;DHT22;2987;50.884;14.818;2023-04-15T09:44:30;9.80;99.90
5924;DHT22;2987;50.884;14.818;2023-04-15T09:46:57;9.90;99.90
5924;DHT22;2987;50.884;14.818;2023-04-15T09:49:24;9.90;99.90
5924;DHT22;2987;50.884;14.818;2023-04-15T09:51:59;9.70;99.90
5924;DHT22;2987;50.884;14.818;2023-04-15T09:54:44;9.90;99.90
5924;DHT22;2987;50.884;14.818;2023-04-15T09:57:12;9.30;99.90
5924;DHT22;2987;50.884;14.818;2023-04-15T09:59:39;9.30;99.90
5924;DHT22;2987;50.884;14.818;2023-04-15T10:02:07;9.60;99.90
5924;DHT22;2987;50.884;14.818;2023-04-15T10:04:39;9.60;99.90
5924;DHT22;2987;50.884;14.818;2023-04-15T10:07:08;9.40;99.90
5924;DHT22;2987;50.884;14.818;2023-04-15T10:09:38;9.40;99.90
5924;DHT22;2987;50.884;14.818;2023-04-15T10:12:05;9.50;99.90
5924;DHT22;2987;50.884;14.818;2023-04-15T10:14:34;9.60;99.90
5924;DHT22;2987;50.884;14.818;2023-04-15T10:17:05;9.90;99.90
5924;DHT22;2987;50.884;14.818;2023-04-15T10:19:36;9.80;99.90
5924;DHT22;2987;50.884;14.818;2023-04-15T10:22:04;9.80;99.90
5924;DHT22;2987;50.884;14.818;2023-04-15T10:24:32;9.70;99.90
5924;DHT22;2987;50.884;14.818;2023-04-15T10:27:00;10.00;99.90
5924;DHT22;2987;50.884;14.818;2023-04-15T10:29:30;10.20;99.90
5924;DHT22;2987;50.884;14.818;2023-04-15T10:31:59;10.40;99.90
5924;DHT22;2987;50.884;14.818;2023-04-15T10:34:27;10.10;99.90
5924;DHT22;2987;50.884;14.818;2023-04-15T10:37:00;10.10;99.90
5924;DHT22;2987;50.884;14.818;2023-04-15T10:39:42;10.30;99.90
5924;DHT22;2987;50.884;14.818;2023-04-15T10:42:12;10.30;99.90
5924;DHT22;2987;50.884;14.818;2023-04-15T10:44:43;10.50;99.90
5924;DHT22;2987;50.884;14.818;2023-04-15T10:47:16;10.60;99.90
5924;DHT22;2987;50.884;14.818;2023-04-15T10:49:48;10.70;99.90
5924;DHT22;2987;50.884;14.818;2023-04-15T10:52:22;10.90;99.90
5924;DHT22;2987;50.884;14.818;2023-04-15T10:55:02;11.00;99.90
5924;DHT22;2987;50.884;14.818;2023-04-15T10:57:36;11.10;99.90
5924;DHT22;2987;50.884;14.818;2023-04-15T11:00:12;11.20;99.90
5924;DHT22;2987;50.884;14.818;2023-04-15T11:05:51;11.10;99.90
5924;DHT22;2987;50.884;14.818;2023-04-15T11:08:21;11.00;99.90
5924;DHT22;2987;50.884;14.818;2023-04-15T11:11:07;11.10;99.90
5924;DHT22;2987;50.884;14.818;2023-04-15T11:13:34;11.00;99.90
5924;DHT22;2987;50.884;14.818;2023-04-15T11:16:02;11.00;99.90
5924;DHT22;2987;50.884;14.818;2023-04-15T11:20:58;11.10;99.90
5924;DHT22;2987;50.884;14.818;2023-04-15T11:23:28;10.90;99.90
5924;DHT22;2987;50.884;14.818;2023-04-15T11:25:58;11.20;99.90
5924;DHT22;2987;50.884;14.818;2023-04-15T11:28:28;11.10;99.90
5924;DHT22;2987;50.884;14.818;2023-04-15T11:30:56;11.20;99.90
5924;DHT22;2987;50.884;14.818;2023-04-15T11:33:24;11.10;99.90
5924;DHT22;2987;50.884;14.818;2023-04-15T11:35:53;11.30;99.90
5924;DHT22;2987;50.884;14.818;2023-04-15T11:38:21;10.90;99.90
5924;DHT22;2987;50.884;14.818;2023-04-15T11:40:50;11.20;99.90
5924;DHT22;2987;50.884;14.818;2023-04-15T11:43:20;11.20;99.90
5924;DHT22;2987;50.884;14.818;2023-04-15T11:45:53;11.20;99.90
5924;DHT22;2987;50.884;14.818;2023-04-15T11:48:24;11.10;99.90
5924;DHT22;2987;50.884;14.818;2023-04-15T11:50:57;11.20;99.90
5924;DHT22;2987;50.884;14.818;2023-04-15T11:53:34;11.20;99.90
5924;DHT22;2987;50.884;14.818;2023-04-15T11:56:00;11.10;99.90
5924;DHT22;2987;50.884;14.818;2023-04-15T11:58:28;10.90;99.90
5924;DHT22;2987;50.884;14.818;2023-04-15T12:00:56;11.10;99.90
5924;DHT22;2987;50.884;14.818;2023-04-15T12:03:25;11.00;99.90
5924;DHT22;2987;50.884;14.818;2023-04-15T12:06:16;11.00;99.90
5924;DHT22;2987;50.884;14.818;2023-04-15T12:14:28;10.90;99.90
5924;DHT22;2987;50.884;14.818;2023-04-15T12:19:24;11.10;99.90
5924;DHT22;2987;50.884;14.818;2023-04-15T12:21:58;11.20;99.90
5924;DHT22;2987;50.884;14.818;2023-04-15T12:24:25;11.20;99.90
5924;DHT22;2987;50.884;14.818;2023-04-15T12:26:53;11.30;99.90
5924;DHT22;2987;50.884;14.818;2023-04-15T12:29:25;11.60;99.90
5924;DHT22;2987;50.884;14.818;2023-04-15T12:31:54;11.30;99.90
5924;DHT22;2987;50.884;14.818;2023-04-15T12:34:29;11.40;99.90
5924;DHT22;2987;50.884;14.818;2023-04-15T12:36:57;11.40;99.90
5924;DHT22;2987;50.884;14.818;2023-04-15T12:39:25;11.50;99.90
5924;DHT22;2987;50.884;14.818;2023-04-15T12:41:52;11.40;99.90
5924;DHT22;2987;50.884;14.818;2023-04-15T12:44:19;11.50;99.90
5924;DHT22;2987;50.884;14.818;2023-04-15T12:46:46;11.40;99.90
5924;DHT22;2987;50.884;14.818;2023-04-15T12:49:12;11.60;99.90
5924;DHT22;2987;50.884;14.818;2023-04-15T12:51:41;12.00;99.90
5924;DHT22;2987;50.884;14.818;2023-04-15T12:54:07;11.70;99.90
5924;DHT22;2987;50.884;14.818;2023-04-15T12:56:34;11.60;99.90
5924;DHT22;2987;50.884;14.818;2023-04-15T12:59:00;11.70;99.90
5924;DHT22;2987;50.884;14.818;2023-04-15T13:01:26;11.70;99.90
5924;DHT22;2987;50.884;14.818;2023-04-15T13:03:52;11.70;99.90
5924;DHT22;2987;50.884;14.818;2023-04-15T13:06:18;11.70;99.90
5924;DHT22;2987;50.884;14.818;2023-04-15T13:08:45;11.70;99.90
5924;DHT22;2987;50.884;14.818;2023-04-15T13:11:11;11.60;99.90
5924;DHT22;2987;50.884;14.818;2023-04-15T13:13:37;11.50;99.90
5924;DHT22;2987;50.884;14.818;2023-04-15T13:16:03;11.50;99.90
5924;DHT22;2987;50.884;14.818;2023-04-15T13:18:29;11.60;99.90
5924;DHT22;2987;50.884;14.818;2023-04-15T13:20:56;11.60;99.90
5924;DHT22;2987;50.884;14.818;2023-04-15T13:23:22;11.60;99.90
5924;DHT22;2987;50.884;14.818;2023-04-15T13:25:48;11.50;99.90
5924;DHT22;2987;50.884;14.818;2023-04-15T13:28:14;11.60;99.90
5924;DHT22;2987;50.884;14.818;2023-04-15T13:30:40;11.60;99.90
5924;DHT22;2987;50.884;14.818;2023-04-15T13:33:08;11.60;99.90
5924;DHT22;2987;50.884;14.818;2023-04-15T13:35:33;11.70;99.90
5924;DHT22;2987;50.884;14.818;2023-04-15T13:38:00;11.60;99.90
5924;DHT22;2987;50.884;14.818;2023-04-15T13:40:26;11.70;99.90
5924;DHT22;2987;50.884;14.818;2023-04-15T13:42:53;11.60;99.90
5924;DHT22;2987;50.884;14.818;2023-04-15T13:45:19;11.50;99.90
5924;DHT22;2987;50.884;14.818;2023-04-15T13:47:45;11.50;99.90
5924;DHT22;2987;50.884;14.818;2023-04-15T13:50:12;11.50;99.90
5924;DHT22;2987;50.884;14.818;2023-04-15T13:52:38;11.50;99.90
5924;DHT22;2987;50.884;14.818;2023-04-15T13:55:05;11.40;99.90
5924;DHT22;2987;50.884;14.818;2023-04-15T13:57:31;11.30;99.90
5924;DHT22;2987;50.884;14.818;2023-04-15T13:59:58;11.30;99.90
5924;DHT22;2987;50.884;14.818;2023-04-15T14:02:24;11.20;99.90
5924;DHT22;2987;50.884;14.818;2023-04-15T14:04:50;11.30;99.90
5924;DHT22;2987;50.884;14.818;2023-04-15T14:07:16;11.30;99.90
5924;DHT22;2987;50.884;14.818;2023-04-15T14:09:43;11.30;99.90
5924;DHT22;2987;50.884;14.818;2023-04-15T14:12:10;11.20;99.90
5924;DHT22;2987;50.884;14.818;2023-04-15T14:14:36;11.10;99.90
5924;DHT22;2987;50.884;14.818;2023-04-15T14:17:03;11.10;99.90
5924;DHT22;2987;50.884;14.818;2023-04-15T14:19:31;11.10;99.90
5924;DHT22;2987;50.884;14.818;2023-04-15T14:21:57;11.10;99.90
5924;DHT22;2987;50.884;14.818;2023-04-15T14:24:24;11.10;99.90
5924;DHT22;2987;50.884;14.818;2023-04-15T14:26:50;11.20;99.90
5924;DHT22;2987;50.884;14.818;2023-04-15T14:29:16;11.20;99.90
5924;DHT22;2987;50.884;14.818;2023-04-15T14:31:42;11.30;99.90
5924;DHT22;2987;50.884;14.818;2023-04-15T14:34:10;11.30;99.90
5924;DHT22;2987;50.884;14.818;2023-04-15T14:36:36;11.40;99.90
5924;DHT22;2987;50.884;14.818;2023-04-15T14:39:03;11.40;99.90
5924;DHT22;2987;50.884;14.818;2023-04-15T14:41:29;11.30;99.90
5924;DHT22;2987;50.884;14.818;2023-04-15T14:43:55;11.40;99.90
5924;DHT22;2987;50.884;14.818;2023-04-15T14:46:21;11.40;99.90
5924;DHT22;2987;50.884;14.818;2023-04-15T14:48:48;11.40;99.90
5924;DHT22;2987;50.884;14.818;2023-04-15T14:51:14;11.40;99.90
5924;DHT22;2987;50.884;14.818;2023-04-15T14:53:41;11.30;99.90
5924;DHT22;2987;50.884;14.818;2023-04-15T14:56:07;11.30;99.90
5924;DHT22;2987;50.884;14.818;2023-04-15T14:58:33;11.30;99.90
5924;DHT22;2987;50.884;14.818;2023-04-15T15:01:00;11.20;99.90
5924;DHT22;2987;50.884;14.818;2023-04-15T15:03:28;11.00;99.90
5924;DHT22;2987;50.884;14.818;2023-04-15T15:05:54;11.30;99.90
5924;DHT22;2987;50.884;14.818;2023-04-15T15:08:20;11.10;99.90
5924;DHT22;2987;50.884;14.818;2023-04-15T15:10:46;11.20;99.90
5924;DHT22;2987;50.884;14.818;2023-04-15T15:13:12;11.20;99.90
5924;DHT22;2987;50.884;14.818;2023-04-15T15:15:38;11.10;99.90
5924;DHT22;2987;50.884;14.818;2023-04-15T15:18:05;11.10;99.90
5924;DHT22;2987;50.884;14.818;2023-04-15T15:20:31;11.10;99.90
5924;DHT22;2987;50.884;14.818;2023-04-15T15:22:58;11.00;99.90
5924;DHT22;2987;50.884;14.818;2023-04-15T15:25:24;11.10;99.90
5924;DHT22;2987;50.884;14.818;2023-04-15T15:27:50;11.10;99.90
5924;DHT22;2987;50.884;14.818;2023-04-15T15:30:17;11.00;99.90
5924;DHT22;2987;50.884;14.818;2023-04-15T15:32:43;10.90;99.90
5924;DHT22;2987;50.884;14.818;2023-04-15T15:35:10;10.90;99.90
5924;DHT22;2987;50.884;14.818;2023-04-15T15:37:36;10.90;99.90
5924;DHT22;2987;50.884;14.818;2023-04-15T15:40:04;11.00;99.90
5924;DHT22;2987;50.884;14.818;2023-04-15T15:42:30;11.20;99.90
5924;DHT22;2987;50.884;14.818;2023-04-15T15:44:57;10.90;99.90
5924;DHT22;2987;50.884;14.818;2023-04-15T15:47:23;10.90;99.90
5924;DHT22;2987;50.884;14.818;2023-04-15T15:49:52;10.90;99.90
5924;DHT22;2987;50.884;14.818;2023-04-15T15:52:19;11.00;99.90
5924;DHT22;2987;50.884;14.818;2023-04-15T15:54:48;11.00;99.90
5924;DHT22;2987;50.884;14.818;2023-04-15T15:57:14;11.00;99.90
5924;DHT22;2987;50.884;14.818;2023-04-15T15:59:40;11.10;99.90
5924;DHT22;2987;50.884;14.818;2023-04-15T16:02:09;11.10;99.90
5924;DHT22;2987;50.884;14.818;2023-04-15T16:04:37;11.20;99.90
5924;DHT22;2987;50.884;14.818;2023-04-15T16:07:03;11.20;99.90
5924;DHT22;2987;50.884;14.818;2023-04-15T16:09:30;11.20;99.90
5924;DHT22;2987;50.884;14.818;2023-04-15T16:11:57;11.20;99.90
5924;DHT22;2987;50.884;14.818;2023-04-15T16:14:24;11.20;99.90
5924;DHT22;2987;50.884;14.818;2023-04-15T16:16:51;11.20;99.90
5924;DHT22;2987;50.884;14.818;2023-04-15T16:19:19;11.20;99.90